• Join FlightAware (Why Join?)
  • Login
  • US Flag 
09:26AM EDT


 

Airport Tracker/Info


-or-


 

Live Flight TrackerFlight Track Log ✈ AWE728 ✈ 05-May-2013 ✈ KPHL - EGLL / LHR

Flight Track Log - Related Links

Times and Time Zones

All times are in EDT time to prevent confusion due to time zone crossing. See the AWE728 flight status page for this flight to view local times or setup timezone preferences in your user account.

Time Position Orientation Groundspeed Altitude Reporting Facility
EDT Latitude Longitude Course Direction KTS MPH feet Rate Location/Type
10:00PM 39.8788 -75.2052 76° East 153 176 1,100  Level FlightAware ADS-B
10:00PM 39.8814 -75.1917 76° East 154 177 1,600 1,620 Climbing FlightAware ADS-B
10:01PM 39.8839 -75.1785 76° East 166 191 1,900 1,200 Climbing FlightAware ADS-B
10:01PM 39.8867 -75.1627 77° East 177 204 2,200 1,200 Climbing FlightAware ADS-B
10:01PM 39.8886 -75.1525 76° East 188 216 2,400 1,560 Climbing FlightAware ADS-B
10:01PM 39.8895 -75.1466 79° East 193 222 2,600 1,500 Climbing FlightAware ADS-B
10:01PM 39.8902 -75.1385 84° East 198 228 2,700 1,200 Climbing FlightAware ADS-B
10:01PM 39.8904 -75.1347 86° East 202 232 2,800 1,680 Climbing FlightAware ADS-B
10:01PM 39.8904 -75.1305 90° East 205 236 2,900 1,800 Climbing FlightAware ADS-B
10:01PM 39.8898 -75.1213 95° East 211 243 3,100 1,500 Climbing FlightAware ADS-B
10:02PM 39.8890 -75.1154 100° East 216 249 3,200 1,500 Climbing FlightAware ADS-B
10:02PM 39.8859 -75.1007 105° East 226 260 3,500 1,860 Climbing FlightAware ADS-B
10:02PM 39.8821 -75.0873 110° East 233 268 3,900 1,800 Climbing FlightAware ADS-B
10:02PM 39.8758 -75.0664 111° Southeast 246 283 4,300 2,040 Climbing FlightAware ADS-B
10:03PM 39.8654 -75.0297 110° East 257 296 5,300 2,160 Climbing FlightAware ADS-B
10:03PM 39.8600 -75.0072 107° East 265 305 5,800 2,280 Climbing FlightAware ADS-B
10:03PM 39.8546 -74.9831 106° East 270 311 6,500 2,640 Climbing FlightAware ADS-B
10:03PM 39.8483 -74.9545 106° East 272 313 7,300 2,700 Climbing FlightAware ADS-B
10:04PM 39.8430 -74.9303 106° East 273 314 8,000 2,760 Climbing FlightAware ADS-B
10:04PM 39.8376 -74.9067 107° East 272 313 8,700 2,700 Climbing FlightAware ADS-B
10:04PM 39.8318 -74.8815 107° East 272 313 9,400 2,400 Climbing FlightAware ADS-B
10:04PM 39.8259 -74.8563 107° East 274 315 10,000 1,320 Climbing FlightAware ADS-B
10:05PM 39.8138 -74.8039 107° East 308 354 10,500 1,020 Climbing FlightAware ADS-B
10:05PM 39.8104 -74.7889 106° East 318 366 10,700 900 Climbing FlightAware ADS-B
10:05PM 39.8090 -74.7792 101° East 323 372 10,700 660 Level FlightAware ADS-B
10:05PM 39.8085 -74.7713 95° East 327 376 10,800 840 Climbing FlightAware ADS-B
10:05PM 39.8089 -74.7650 85° East 332 382 10,800 960 Level FlightAware ADS-B
10:05PM 39.8097 -74.7589 80° East 335 386 10,900 960 Climbing FlightAware ADS-B
10:05PM 39.8109 -74.7530 75° East 340 391 10,900 840 Level FlightAware ADS-B
10:05PM 39.8128 -74.7463 70° East 344 396 11,000 1,080 Climbing FlightAware ADS-B
10:06PM 39.8260 -74.7109 64° Northeast 361 415 11,300 1,620 Climbing FlightAware ADS-B
10:06PM 39.8469 -74.6508 66° East 369 425 12,300 2,160 Climbing FlightAware ADS-B
10:07PM 39.8680 -74.5883 66° East 373 429 13,500 2,220 Climbing FlightAware ADS-B
10:07PM 39.8891 -74.5258 66° East 378 435 14,600 1,980 Climbing FlightAware ADS-B
10:08PM 39.9103 -74.4625 66° East 384 442 15,500 1,800 Climbing FlightAware ADS-B
10:08PM 39.9319 -74.3980 66° East 391 450 16,400 1,620 Climbing FlightAware ADS-B
10:09PM 39.9545 -74.3303 66° East 397 457 17,200 1,440 Climbing FlightAware ADS-B
10:09PM 39.9740 -74.2700 67° East 403 464 18,000 1,680 Climbing FlightAware
10:09PM 39.9833 -74.2437 65° Northeast 405 466 18,300 2,040 Climbing FlightAware ADS-B
10:10PM 40.0064 -74.1743 66° East 411 473 19,200 1,560 Climbing FlightAware ADS-B
10:10PM 40.0294 -74.1050 67° East 417 480 19,900 1,500 Climbing FlightAware ADS-B
10:11PM 40.0542 -74.0297 67° East 420 483 20,800 1,560 Climbing FlightAware ADS-B
10:12PM 40.0785 -73.9559 67° East 424 488 21,600 1,500 Climbing FlightAware ADS-B
10:12PM 40.1022 -73.8838 67° East 425 489 22,400 1,500 Climbing FlightAware ADS-B
10:13PM 40.1259 -73.8113 67° East 427 491 23,200 1,740 Climbing FlightAware ADS-B
10:13PM 40.1499 -73.7380 67° East 423 487 24,200 1,740 Climbing FlightAware ADS-B
10:14PM 40.1729 -73.6677 67° East 422 486 25,000 1,320 Climbing FlightAware ADS-B
10:14PM 40.1976 -73.5917 67° East 426 490 25,600 1,020 Climbing FlightAware ADS-B
10:15PM 40.2222 -73.5159 67° East 431 496 26,100 960 Climbing FlightAware ADS-B
10:15PM 40.2432 -73.4515 67° East 433 498 26,600 900 Climbing FlightAware ADS-B
10:15PM 40.2540 -73.4252 62° Northeast 432 497 26,700 1,080 Climbing FlightAware ADS-B
10:15PM 40.2669 -73.4022 54° Northeast 429 494 27,000 1,500 Climbing FlightAware ADS-B
10:16PM 40.2739 -73.3917 49° Northeast 429 494 27,100 1,020 Climbing FlightAware ADS-B
10:16PM 40.3432 -73.2955 47° Northeast 431 496 28,000 960 Climbing FlightAware ADS-B
10:17PM 40.3859 -73.2359 47° Northeast 432 497 28,500 960 Climbing FlightAware ADS-B
10:18PM 40.4362 -73.1657 47° Northeast 434 499 29,100 840 Climbing FlightAware ADS-B
10:18PM 40.4826 -73.1008 47° Northeast 437 503 29,500 720 Climbing FlightAware ADS-B
10:19PM 40.5259 -73.0400 47° Northeast 442 509 29,900 660 Climbing FlightAware ADS-B
10:19PM 40.5686 -72.9802 47° Northeast 444 511 30,200 780 Climbing FlightAware ADS-B
10:20PM 40.6114 -72.9199 47° Northeast 444 511 30,700 960 Climbing FlightAware ADS-B
10:20PM 40.6550 -72.8584 47° Northeast 443 510 31,200 960 Climbing FlightAware ADS-B
10:21PM 40.6978 -72.7979 47° Northeast 442 509 31,700 960 Climbing FlightAware ADS-B
10:21PM 40.7411 -72.7365 47° Northeast 439 505 32,200 960 Climbing FlightAware ADS-B
10:22PM 40.7825 -72.6779 47° Northeast 437 503 32,700 840 Climbing FlightAware ADS-B
10:22PM 40.8252 -72.6171 47° Northeast 437 503 33,100 720 Climbing FlightAware ADS-B
10:23PM 40.8664 -72.5584 47° Northeast 437 503 33,500 660 Climbing FlightAware ADS-B
10:23PM 40.9097 -72.4966 47° Northeast 439 505 33,800 780 Climbing FlightAware ADS-B
10:24PM 40.9510 -72.4375 47° Northeast 436 502 34,300 1,200 Climbing FlightAware ADS-B
10:24PM 40.9915 -72.3794 47° Northeast 427 491 35,000 1,140 Climbing FlightAware ADS-B
10:25PM 41.0317 -72.3215 47° Northeast 425 489 35,500 660 Climbing FlightAware ADS-B
10:25PM 41.0723 -72.2631 47° Northeast 427 491 35,700 360 Climbing FlightAware ADS-B
10:26PM 41.1131 -72.2043 47° Northeast 429 494 35,900 480 Climbing FlightAware ADS-B
10:26PM 41.1534 -72.1461 47° Northeast 430 495 36,200 540 Climbing FlightAware ADS-B
10:27PM 41.1981 -72.0814 47° Northeast 430 495 36,500 540 Climbing FlightAware ADS-B
10:27PM 41.2405 -72.0198 48° Northeast 431 496 36,800 360 Climbing FlightAware ADS-B
10:28PM 41.3000 -71.9332 48° Northeast 434 499 37,000 120 Climbing FlightAware ADS-B
10:29PM 41.3530 -71.8560 48° Northeast 441 507 37,000  Level FlightAware
10:30PM 41.4090 -71.7730 48° Northeast 446 513 37,000  Level FlightAware
10:30PM 41.4740 -71.6790 47° Northeast 447 514 37,000  Level FlightAware
10:31PM 41.5280 -71.5990 48° Northeast 448 516 37,000  Level FlightAware
10:32PM 41.5890 -71.5090 48° Northeast 448 516 37,000  Level FlightAware
10:32PM 41.6430 -71.4290 48° Northeast 448 516 37,000  Level FlightAware
10:33PM 41.6980 -71.3480 48° Northeast 448 516 37,000  Level FlightAware
10:34PM 41.7610 -71.2530 48° Northeast 446 513 37,000  Level FlightAware
10:34PM 41.8120 -71.1780 48° Northeast 446 513 37,000  Level FlightAware
10:35PM 41.8780 -71.0790 48° Northeast 444 511 37,000  Level FlightAware
10:36PM 41.9340 -70.9950 48° Northeast 443 510 37,000  Level FlightAware
10:36PM 41.9880 -70.9130 48° Northeast 444 511 37,000  Level FlightAware
10:37PM 42.0660 -70.7950 48° Northeast 438 504 37,000  Level FlightAware
10:38PM 42.1120 -70.7250 48° Northeast 444 511 37,000  Level FlightAware
10:39PM 42.1660 -70.6430 48° Northeast 443 510 37,000  Level FlightAware
10:39PM 42.2310 -70.5450 48° Northeast 443 510 37,000  Level FlightAware
10:40PM 42.2920 -70.4510 49° Northeast 444 511 37,000  Level FlightAware
10:41PM 42.3520 -70.3580 49° Northeast 445 512 37,000  Level FlightAware
10:42PM 42.4000 -70.2850 48° Northeast 446 513 37,000  Level FlightAware
10:42PM 42.4610 -70.1910 49° Northeast 443 510 37,000  Level FlightAware
10:43PM 42.5180 -70.1020 49° Northeast 444 511 37,000  Level FlightAware
10:44PM 42.5780 -70.0100 48° Northeast 445 512 37,000  Level FlightAware
10:44PM 42.6390 -69.9160 49° Northeast 444 511 37,000  Level FlightAware
10:45PM 42.6930 -69.8310 49° Northeast 444 511 37,000  Level FlightAware
10:46PM 42.7680 -69.7130 49° Northeast 449 517 37,000  Level FlightAware
10:47PM 42.8350 -69.6070 49° Northeast 449 517 37,000  Level FlightAware
10:48PM 42.8950 -69.5130 49° Northeast 453 521 37,000  Level FlightAware
10:49PM 42.9820 -69.3750 49° Northeast 453 521 37,000  Level FlightAware
10:49PM 43.0390 -69.2840 49° Northeast 453 521 37,000  Level FlightAware
10:50PM 43.0960 -69.1930 49° Northeast 454 522 37,000  Level FlightAware
10:51PM 43.1420 -69.1210 49° Northeast 454 522 37,000  Level FlightAware
10:51PM 43.1890 -69.0470 49° Northeast 454 522 37,000  Level FlightAware
10:52PM 43.2470 -68.9540 49° Northeast 454 522 37,000  Level FlightAware
10:53PM 43.3250 -68.8240 50° Northeast 455 524 37,000  Level FlightAware
10:54PM 43.3860 -68.7250 50° Northeast 456 525 37,000  Level FlightAware
10:54PM 43.4500 -68.6220 49° Northeast 456 525 37,000  Level FlightAware
10:55PM 43.5290 -68.4940 50° Northeast 456 525 37,000  Level FlightAware
10:56PM 43.5790 -68.4100 51° Northeast 456 525 37,000  Level FlightAware
10:57PM 43.6390 -68.3120 50° Northeast 452 520 37,000  Level FlightAware
10:57PM 43.6930 -68.2220 50° Northeast 452 520 37,000  Level FlightAware
10:58PM 43.7610 -68.1100 50° Northeast 438 504 37,000  Level FlightAware
10:59PM 43.8120 -68.0240 51° Northeast 433 498 37,000  Level FlightAware
11:00PM 43.8710 -67.9260 50° Northeast 437 503 37,000  Level FlightAware
11:00PM 43.9230 -67.8380 51° Northeast 439 505 37,000  Level FlightAware
11:01PM 43.9750 -67.7540 49° Northeast 442 509 37,000  Level FlightAware
11:02PM 44.0360 -67.6500 51° Northeast 445 512 37,000  Level FlightAware
11:02PM 44.0870 -67.5630 51° Northeast 444 511 37,000  Level FlightAware
11:03PM 44.1400 -67.4720 51° Northeast 444 511 37,000  Level FlightAware
11:04PM 44.1990 -67.3730 50° Northeast 442 509 37,000  Level FlightAware
11:05PM 44.2580 -67.2730 50° Northeast 442 509 37,000  Level FlightAware
11:05PM 44.3100 -67.1820 51° Northeast 442 509 37,000  Level FlightAware
11:06PM 44.3620 -67.0940 50° Northeast 442 509 37,000  Level FlightAware
11:07PM 44.4220 -66.9910 51° Northeast 444 511 37,000  Level FlightAware
11:07PM 44.4710 -66.8990 53° Northeast 444 511 37,000  Level FlightAware
11:08PM 44.5280 -66.7940 53° Northeast 442 509 37,000  Level FlightAware
11:09PM 44.5770 -66.7030 53° Northeast 443 510 37,000  Level FlightAware
11:09PM 44.6260 -66.6110 53° Northeast 443 510 37,000  Level FlightAware
11:10PM 44.6830 -66.5060 53° Northeast 442 509 37,000  Level FlightAware
11:11PM 44.7320 -66.4130 53° Northeast 443 510 37,000  Level FlightAware
11:12PM 44.7880 -66.3080 53° Northeast 443 510 37,000  Level FlightAware
11:12PM 44.8370 -66.2150 53° Northeast 444 511 37,000  Level FlightAware
11:13PM 44.8870 -66.1200 53° Northeast 445 512 37,000  Level FlightAware
11:14PM 44.9420 -66.0160 53° Northeast 445 512 37,000  Level FlightAware
11:14PM 44.9920 -65.9210 53° Northeast 444 511 37,000  Level FlightAware
11:15PM 45.0480 -65.8140 53° Northeast 444 511 37,000  Level FlightAware
11:16PM 45.0970 -65.7190 54° Northeast 444 511 37,000  Level FlightAware
11:16PM 45.1470 -65.6230 54° Northeast 445 512 37,000  Level FlightAware
11:17PM 45.2020 -65.5160 54° Northeast 447 514 37,000  Level FlightAware
11:18PM 45.2500 -65.4230 54° Northeast 446 513 37,000  Level FlightAware
11:19PM 45.3070 -65.3130 54° Northeast 446 513 37,000  Level FlightAware
11:19PM 45.3550 -65.2190 54° Northeast 446 513 37,000  Level FlightAware
11:20PM 45.4110 -65.1090 54° Northeast 450 518 37,000  Level FlightAware
11:21PM 45.4610 -65.0100 54° Northeast 458 527 37,000  Level FlightAware
11:21PM 45.5100 -64.9140 54° Northeast 463 533 37,000  Level FlightAware
11:22PM 45.5680 -64.7980 54° Northeast 465 535 37,000  Level FlightAware
11:23PM 45.6190 -64.6980 54° Northeast 466 536 37,000  Level FlightAware
11:23PM 45.6740 -64.5870 55° Northeast 465 535 37,000  Level FlightAware
11:24PM 45.7240 -64.4860 55° Northeast 465 535 37,000  Level FlightAware
11:25PM 45.7710 -64.3910 55° Northeast 464 534 37,000  Level FlightAware
11:26PM 45.8300 -64.2720 55° Northeast 464 534 37,000  Level FlightAware
11:26PM 45.8800 -64.1720 54° Northeast 467 537 37,000  Level FlightAware
11:27PM 45.9340 -64.0620 55° Northeast 468 539 37,000  Level FlightAware
11:28PM 45.9850 -63.9580 55° Northeast 470 541 37,000  Level FlightAware
11:29PM 46.0540 -63.8160 55° Northeast 473 544 37,000  Level FlightAware
11:29PM 46.0940 -63.7340 55° Northeast 474 545 37,000  Level FlightAware
11:30PM 46.1460 -63.6260 55° Northeast 474 545 37,000  Level FlightAware
11:31PM 46.1990 -63.5160 55° Northeast 474 545 37,000  Level FlightAware
11:31PM 46.2420 -63.4280 55° Northeast 474 545 37,000  Level FlightAware
11:32PM 46.2850 -63.3390 55° Northeast 474 545 37,000  Level FlightAware
11:33PM 46.3280 -63.2510 55° Northeast 474 545 37,000  Level FlightAware
11:33PM 46.3710 -63.1620 55° Northeast 474 545 37,000  Level FlightAware
11:34PM 46.4240 -63.0520 55° Northeast 474 545 37,000  Level FlightAware
11:35PM 46.4670 -62.9630 55° Northeast 474 545 37,000  Level FlightAware
11:36PM 46.5090 -62.8740 56° Northeast 474 545 37,000  Level FlightAware
11:36PM 46.5520 -62.7850 55° Northeast 474 545 37,000  Level FlightAware
11:37PM 46.5950 -62.6970 55° Northeast 474 545 37,000  Level FlightAware
11:38PM 46.6480 -62.5850 55° Northeast 474 545 37,000  Level FlightAware
11:38PM 46.6910 -62.4960 55° Northeast 474 545 37,000  Level FlightAware
11:39PM 46.7340 -62.4070 55° Northeast 474 545 37,000 300 Level FlightAware
11:44PM 47.1840 -61.3860 57° Northeast 469 540 39,000 300 Climbing FlightAware
11:45PM 47.2260 -61.2950 56° Northeast 469 540 39,000  Level FlightAware
11:46PM 47.2800 -61.1720 57° Northeast 471 542 39,000  Level FlightAware
11:46PM 47.3220 -61.0790 56° Northeast 471 542 39,000  Level FlightAware
11:47PM 47.3710 -60.9630 58° Northeast 473 544 39,000  Level FlightAware
11:48PM 47.4200 -60.8530 57° Northeast 473 544 39,000  Level FlightAware
11:48PM 47.4610 -60.7600 57° Northeast 473 544 39,000  Level FlightAware
11:49PM 47.5110 -60.6450 57° Northeast 473 544 39,000  Level FlightAware
11:50PM 47.5520 -60.5520 57° Northeast 473 544 39,000  Level FlightAware
11:50PM 47.5920 -60.4600 57° Northeast 473 544 39,000  Level FlightAware
11:51PM 47.6330 -60.3670 57° Northeast 473 544 39,000  Level FlightAware
11:52PM 47.6730 -60.2750 57° Northeast 473 544 39,000  Level FlightAware
11:53PM 47.7240 -60.1590 57° Northeast 473 544 39,000  Level FlightAware
11:53PM 47.7640 -60.0660 57° Northeast 473 544 39,000  Level FlightAware
11:54PM 47.8650 -59.8140 59° Northeast 477 549 39,000  Level FlightAware
11:55PM 47.9160 -59.6930 58° Northeast 477 549 39,000  Level FlightAware
11:55PM 47.9680 -59.5690 58° Northeast 477 549 39,000  Level FlightAware
11:56PM 48.0080 -59.4730 58° Northeast 477 549 39,000  Level FlightAware
11:57PM 48.0830 -59.2920 58° Northeast 480 552 39,000  Level FlightAware
11:58PM 48.1370 -59.1600 58° Northeast 480 552 39,000  Level FlightAware
11:58PM 48.1720 -59.0760 58° Northeast 480 552 39,000  Level FlightAware
11:59PM 48.2250 -58.9450 59° Northeast 480 552 39,000  Level FlightAware
12:00AM 48.2960 -58.7700 59° Northeast 482 555 39,000  Level FlightAware
12:01AM 48.3630 -58.6040 59° Northeast 483 556 39,000  Level FlightAware
12:02AM 48.4020 -58.5070 59° Northeast 485 558 39,000  Level FlightAware
12:02AM 48.4580 -58.3660 59° Northeast 486 559 39,000  Level FlightAware
12:03AM 48.5050 -58.2470 59° Northeast 486 559 39,000  Level FlightAware
12:04AM 48.5640 -58.0960 59° Northeast 488 562 39,000  Level FlightAware
12:05AM 48.6420 -57.8710 62° Northeast 490 564 39,000  Level FlightAware
12:06AM 48.6880 -57.7410 62° Northeast 492 566 39,000  Level FlightAware
12:07AM 48.7410 -57.5880 62° Northeast 493 567 39,000  Level FlightAware
12:07AM 48.7900 -57.4450 62° Northeast 493 567 39,000  Level FlightAware
12:08AM 48.8390 -57.3040 62° Northeast 494 568 39,000  Level FlightAware
12:09AM 48.8800 -57.1810 63° Northeast 495 570 39,000  Level FlightAware
12:10AM 48.9220 -57.0590 62° Northeast 496 571 39,000  Level FlightAware
12:10AM 48.9750 -56.9030 63° Northeast 496 571 39,000  Level FlightAware
12:11AM 49.0160 -56.7790 63° Northeast 497 572 39,000  Level FlightAware
12:12AM 49.0630 -56.6400 63° Northeast 497 572 39,000  Level FlightAware
12:12AM 49.1040 -56.5170 63° Northeast 497 572 39,000  Level FlightAware
12:13AM 49.1460 -56.3900 63° Northeast 497 572 39,000  Level FlightAware
12:14AM 49.1870 -56.2640 63° Northeast 497 572 39,000  Level FlightAware
12:14AM 49.2290 -56.1380 63° Northeast 498 573 39,000  Level FlightAware
12:15AM 49.2750 -55.9960 64° Northeast 500 575 39,000  Level FlightAware
12:16AM 49.3210 -55.8530 64° Northeast 503 579 39,000  Level FlightAware
12:17AM 49.3600 -55.7320 64° Northeast 504 580 39,000  Level FlightAware
12:17AM 49.4080 -55.5810 64° Northeast 504 580 39,000  Level FlightAware
12:18AM 49.4640 -55.4060 64° Northeast 504 580 39,000  Level FlightAware
12:19AM 49.5000 -55.2930 64° Northeast 505 581 39,000  Level FlightAware
12:20AM 49.5460 -55.1480 64° Northeast 505 581 39,000  Level FlightAware
12:20AM 49.5920 -55.0010 64° Northeast 505 581 39,000  Level FlightAware
12:21AM 49.6320 -54.8710 65° Northeast 505 581 39,000  Level FlightAware
12:22AM 49.6720 -54.7430 64° Northeast 505 581 39,000  Level FlightAware
12:22AM 49.7120 -54.6130 65° Northeast 506 582 39,000  Level FlightAware
12:23AM 49.7570 -54.4670 64° Northeast 506 582 39,000  Level FlightAware
12:24AM 49.8020 -54.3180 65° Northeast 506 582 39,000  Level FlightAware
12:25AM 49.8410 -54.1880 65° Northeast 505 581 39,000  Level FlightAware
12:25AM 49.8810 -54.0570 65° Northeast 506 582 39,000  Level FlightAware
12:26AM 49.9200 -53.9260 65° Northeast 508 585 39,000  Level FlightAware
12:27AM 49.9690 -53.7590 65° Northeast 509 586 39,000  Level FlightAware
12:27AM 50.0040 -53.6430 65° Northeast 510 587 39,000  Level FlightAware
12:28AM 50.0480 -53.4930 65° Northeast 509 586 39,000  Level FlightAware
12:29AM 50.0910 -53.3450 66° East 509 586 39,000  Level FlightAware
12:29AM 50.1290 -53.2140 66° East 510 587 39,000  Level FlightAware
12:30AM 50.1690 -53.0760 66° East 511 588 39,000  Level FlightAware
12:31AM 50.2120 -52.9260 66° East 512 589 39,000  Level FlightAware
12:31AM 50.2440 -52.8160 66° East 512 589 39,000  Level FlightAware
12:32AM 50.2860 -52.6660 66° East 514 592 39,000  Level FlightAware
12:33AM 50.3320 -52.5040 66° East 516 594 39,000  Level FlightAware
12:34AM 50.3660 -52.3830 66° East 517 595 39,000  Level FlightAware
12:34AM 50.4130 -52.2130 66° East 518 596 39,000  Level FlightAware
12:35AM 50.4560 -52.0620 66° East 518 596 39,000  Level FlightAware
12:36AM 50.5020 -51.8910 67° East 519 597 39,000  Level FlightAware
12:37AM 50.5420 -51.7490 66° East 518 596 39,000  Level FlightAware
12:37AM 50.5750 -51.6320 66° East 518 596 39,000  Level FlightAware
12:38AM 50.6080 -51.5150 66° East 518 596 39,000  Level FlightAware
12:39AM 50.6410 -51.3970 66° East 518 596 39,000  Level FlightAware
12:40AM 50.6830 -51.2500 66° East 518 596 39,000  Level FlightAware
12:40AM 50.7160 -51.1330 66° East 518 596 39,000  Level FlightAware
12:41AM 50.7490 -51.0150 66° East 518 596 39,000  Level FlightAware
12:42AM 50.7820 -50.8980 66° East 518 596 39,000  Level FlightAware
12:42AM 50.8150 -50.7800 66° East 518 596 39,000  Level FlightAware
12:43AM 50.8480 -50.6620 66° East 518 596 39,000  Level FlightAware
12:44AM 50.8900 -50.5150 66° East 518 596 39,000  Level FlightAware
12:44AM 50.9230 -50.3960 66° East 518 596 39,000  Level FlightAware
12:45AM 50.9560 -50.2780 66° East 518 596 39,000  Level FlightAware
12:46AM 50.9890 -50.1600 66° East 518 596 39,000  Level FlightAware
12:46AM 51.0167 -49.6333 66° East 530 610 39,000  Level Gander Center
12:47AM 51.0333 -49.4167 83° East 530 610 39,000  Level Gander Center
12:48AM 51.0833 -49.1667 72° East 540 621 39,000  Level Gander Center
12:49AM 51.1167 -48.9667 75° East 540 621 39,000  Level Gander Center
12:51AM 51.1485 -48.7361 77° East  Level FlightAware Approximate
12:58AM 51.3377 -47.2835 78° East  Level FlightAware Approximate
12:59AM 51.3633 -47.0751 79° East  Level FlightAware Approximate
01:00AM 51.3885 -46.8664 79° East  Level FlightAware Approximate
01:01AM 51.4133 -46.6574 79° East  Level FlightAware Approximate
01:02AM 51.4378 -46.4483 79° East  Level FlightAware Approximate
01:03AM 51.4618 -46.2389 79° East  Level FlightAware Approximate
01:04AM 51.4855 -46.0293 80° East  Level FlightAware Approximate
01:05AM 51.5089 -45.8195 80° East  Level FlightAware Approximate
01:06AM 51.5318 -45.6095 80° East  Level FlightAware Approximate
01:07AM 51.5544 -45.3993 80° East  Level FlightAware Approximate
01:08AM 51.5766 -45.1888 80° East  Level FlightAware Approximate
01:09AM 51.5984 -44.9782 80° East  Level FlightAware Approximate
01:10AM 51.6199 -44.7673 81° East  Level FlightAware Approximate
01:11AM 51.6409 -44.5563 81° East  Level FlightAware Approximate
01:12AM 51.6616 -44.3451 81° East  Level FlightAware Approximate
01:13AM 51.6819 -44.1336 81° East  Level FlightAware Approximate
01:14AM 51.7019 -43.9220 81° East  Level FlightAware Approximate
01:15AM 51.7214 -43.7102 81° East  Level FlightAware Approximate
01:16AM 51.7406 -43.4982 82° East  Level FlightAware Approximate
01:17AM 51.7594 -43.2861 82° East  Level FlightAware Approximate
01:18AM 51.7778 -43.0737 82° East  Level FlightAware Approximate
01:19AM 51.7958 -42.8612 82° East  Level FlightAware Approximate
01:20AM 51.8134 -42.6486 82° East  Level FlightAware Approximate
01:21AM 51.8307 -42.4357 82° East  Level FlightAware Approximate
01:22AM 51.8475 -42.2227 83° East  Level FlightAware Approximate
01:23AM 51.8640 -42.0096 83° East  Level FlightAware Approximate
01:24AM 51.8801 -41.7963 83° East  Level FlightAware Approximate
01:25AM 51.8958 -41.5828 83° East  Level FlightAware Approximate
01:26AM 51.9112 -41.3692 83° East  Level FlightAware Approximate
01:27AM 51.9261 -41.1554 83° East  Level FlightAware Approximate
01:28AM 51.9407 -40.9416 84° East  Level FlightAware Approximate
01:29AM 51.9548 -40.7275 84° East  Level FlightAware Approximate
01:30AM 51.9686 -40.5134 84° East  Level FlightAware Approximate
01:31AM 51.9820 -40.2991 84° East  Level FlightAware Approximate
01:32AM 51.9950 -40.0846 84° East  Level FlightAware Approximate
01:33AM 52.0184 -39.8730 77° East  Level FlightAware Approximate
01:34AM 52.0484 -39.6629 77° East  Level FlightAware Approximate
01:35AM 52.0781 -39.4525 77° East  Level FlightAware Approximate
01:36AM 52.1074 -39.2419 77° East  Level FlightAware Approximate
01:37AM 52.1364 -39.0310 77° East  Level FlightAware Approximate
01:38AM 52.1649 -38.8198 77° East  Level FlightAware Approximate
01:39AM 52.1931 -38.6084 78° East  Level FlightAware Approximate
01:40AM 52.2209 -38.3967 78° East  Level FlightAware Approximate
01:41AM 52.2483 -38.1847 78° East  Level FlightAware Approximate
01:42AM 52.2754 -37.9725 78° East  Level FlightAware Approximate
01:43AM 52.3020 -37.7600 78° East  Level FlightAware Approximate
01:44AM 52.3283 -37.5472 78° East  Level FlightAware Approximate
01:45AM 52.3542 -37.3342 79° East  Level FlightAware Approximate
01:46AM 52.3797 -37.1210 79° East  Level FlightAware Approximate
01:47AM 52.4048 -36.9075 79° East  Level FlightAware Approximate
01:48AM 52.4296 -36.6938 79° East  Level FlightAware Approximate
01:49AM 52.4539 -36.4798 79° East  Level FlightAware Approximate
01:50AM 52.4779 -36.2656 80° East  Level FlightAware Approximate
01:51AM 52.5015 -36.0512 80° East  Level FlightAware Approximate
01:52AM 52.5247 -35.8365 80° East  Level FlightAware Approximate
01:53AM 52.5475 -35.6216 80° East  Level FlightAware Approximate
01:54AM 52.5699 -35.4065 80° East  Level FlightAware Approximate
01:55AM 52.5919 -35.1912 80° East  Level FlightAware Approximate
01:56AM 52.6136 -34.9756 81° East  Level FlightAware Approximate
01:57AM 52.6348 -34.7599 81° East  Level FlightAware Approximate
01:58AM 52.6557 -34.5439 81° East  Level FlightAware Approximate
01:59AM 52.6761 -34.3278 81° East  Level FlightAware Approximate
02:00AM 52.6962 -34.1114 81° East  Level FlightAware Approximate
02:01AM 52.7159 -33.8948 81° East  Level FlightAware Approximate
02:02AM 52.7351 -33.6781 82° East  Level FlightAware Approximate
02:03AM 52.7540 -33.4611 82° East  Level FlightAware Approximate
02:04AM 52.7725 -33.2440 82° East  Level FlightAware Approximate
02:05AM 52.7906 -33.0267 82° East  Level FlightAware Approximate
02:06AM 52.8083 -32.8092 82° East  Level FlightAware Approximate
02:07AM 52.8256 -32.5915 82° East  Level FlightAware Approximate
02:08AM 52.8424 -32.3737 83° East  Level FlightAware Approximate
02:09AM 52.8590 -32.1557 83° East  Level FlightAware Approximate
02:10AM 52.8750 -31.9375 83° East  Level FlightAware Approximate
02:11AM 52.8907 -31.7192 83° East  Level FlightAware Approximate
02:12AM 52.9060 -31.5007 83° East  Level FlightAware Approximate
02:13AM 52.9209 -31.2820 83° East  Level FlightAware Approximate
02:14AM 52.9354 -31.0632 84° East  Level FlightAware Approximate
02:15AM 52.9495 -30.8443 84° East  Level FlightAware Approximate
02:16AM 52.9632 -30.6252 84° East  Level FlightAware Approximate
02:17AM 52.9765 -30.4060 84° East  Level FlightAware Approximate
02:18AM 52.9894 -30.1867 84° East  Level FlightAware Approximate
02:19AM 53.0014 -29.9671 86° East  Level FlightAware Approximate
02:20AM 53.0104 -29.7471 86° East  Level FlightAware Approximate
02:21AM 53.0189 -29.5271 86° East  Level FlightAware Approximate
02:22AM 53.0271 -29.3069 86° East  Level FlightAware Approximate
02:23AM 53.0349 -29.0866 87° East  Level FlightAware Approximate
02:24AM 53.0422 -28.8663 87° East  Level FlightAware Approximate
02:25AM 53.0492 -28.6459 87° East  Level FlightAware Approximate
02:26AM 53.0557 -28.4254 87° East  Level FlightAware Approximate
02:27AM 53.0619 -28.2049 87° East  Level FlightAware Approximate
02:28AM 53.0676 -27.9843 87° East  Level FlightAware Approximate
02:29AM 53.0729 -27.7636 88° East  Level FlightAware Approximate
02:30AM 53.0778 -27.5429 88° East  Level FlightAware Approximate
02:31AM 53.0823 -27.3222 88° East  Level FlightAware Approximate
02:32AM 53.0864 -27.1014 88° East  Level FlightAware Approximate
02:33AM 53.0901 -26.8805 88° East  Level FlightAware Approximate
02:34AM 53.0934 -26.6597 88° East  Level FlightAware Approximate
02:35AM 53.0963 -26.4388 89° East  Level FlightAware Approximate
02:36AM 53.0987 -26.2178 89° East  Level FlightAware Approximate
02:37AM 53.1008 -25.9969 89° East  Level FlightAware Approximate
02:38AM 53.1024 -25.7759 89° East  Level FlightAware Approximate
02:39AM 53.1036 -25.5549 89° East  Level FlightAware Approximate
02:40AM 53.1045 -25.3339 90° East  Level FlightAware Approximate
02:41AM 53.1049 -25.1129 90° East  Level FlightAware Approximate
02:42AM 53.1049 -24.8919 90° East  Level FlightAware Approximate
02:43AM 53.1045 -24.6709 90° East  Level FlightAware Approximate
02:44AM 53.1037 -24.4499 90° East  Level FlightAware Approximate
02:45AM 53.1025 -24.2289 90° East  Level FlightAware Approximate
02:46AM 53.1008 -24.0079 91° East  Level FlightAware Approximate
02:47AM 53.0988 -23.7869 91° East  Level FlightAware Approximate
02:48AM 53.0963 -23.5660 91° East  Level FlightAware Approximate
02:49AM 53.0935 -23.3451 91° East  Level FlightAware Approximate
02:50AM 53.0902 -23.1242 91° East  Level FlightAware Approximate
02:51AM 53.0865 -22.9034 92° East  Level FlightAware Approximate
02:52AM 53.0824 -22.6826 92° East  Level FlightAware Approximate
02:53AM 53.0779 -22.4618 92° East  Level FlightAware Approximate
02:54AM 53.0730 -22.2411 92° East  Level FlightAware Approximate
02:55AM 53.0677 -22.0205 92° East  Level FlightAware Approximate
02:56AM 53.0620 -21.7999 92° East  Level FlightAware Approximate
02:57AM 53.0559 -21.5793 93° East  Level FlightAware Approximate
02:58AM 53.0493 -21.3589 93° East  Level FlightAware Approximate
02:59AM 53.0424 -21.1385 93° East  Level FlightAware Approximate
03:00AM 53.0350 -20.9181 93° East  Level FlightAware Approximate
03:01AM 53.0273 -20.6979 93° East  Level FlightAware Approximate
03:02AM 53.0191 -20.4777 93° East  Level FlightAware Approximate
03:03AM 53.0106 -20.2576 94° East  Level FlightAware Approximate
03:04AM 53.0016 -20.0376 94° East  Level FlightAware Approximate
03:05AM 52.9994 -19.8173 90° East  Level FlightAware Approximate
03:06AM 52.9984 -19.5968 90° East  Level FlightAware Approximate
03:07AM 52.9969 -19.3764 91° East  Level FlightAware Approximate
03:08AM 52.9951 -19.1559 91° East  Level FlightAware Approximate
03:09AM 52.9928 -18.9355 91° East  Level FlightAware Approximate
03:10AM 52.9901 -18.7151 91° East  Level FlightAware Approximate
03:11AM 52.9870 -18.4948 91° East  Level FlightAware Approximate
03:12AM 52.9835 -18.2745 91° East  Level FlightAware Approximate
03:13AM 52.9796 -18.0542 92° East  Level FlightAware Approximate
03:14AM 52.9753 -17.8340 92° East  Level FlightAware Approximate
03:15AM 52.9706 -17.6138 92° East  Level FlightAware Approximate
03:16AM 52.9655 -17.3936 92° East  Level FlightAware Approximate
03:17AM 52.9599 -17.1735 92° East  Level FlightAware Approximate
03:18AM 52.9540 -16.9535 92° East  Level FlightAware Approximate
03:19AM 52.9476 -16.7335 93° East  Level FlightAware Approximate
03:20AM 52.9409 -16.5136 93° East  Level FlightAware Approximate
03:21AM 52.9337 -16.2938 93° East  Level FlightAware Approximate
03:22AM 52.9262 -16.0740 93° East  Level FlightAware Approximate
03:23AM 52.9182 -15.8544 93° East  Level FlightAware Approximate
03:23AM 52.8440 -12.6870 94° East 493 567 39,000  Level FlightAware
03:24AM 52.9098 -15.6348 94° East  Level FlightAware Approximate
03:24AM 52.8320 -12.5280 97° East 492 566 39,000  Level FlightAware
03:25AM 52.8170 -12.3320 97° East 494 568 39,000  Level FlightAware
03:25AM 52.8030 -12.1650 98° East 493 567 39,000  Level FlightAware
03:26AM 52.7920 -12.0320 98° East 492 566 39,000  Level FlightAware
03:27AM 52.7790 -11.8720 98° East 491 565 39,000  Level FlightAware
03:29AM 52.7479 -11.4807 97° East  Level FlightAware Approximate
03:29AM 52.7310 -11.3200 97° East 492 566 39,000  Level FlightAware
03:30AM 52.7170 -11.1690 99° East 492 566 39,000  Level FlightAware
03:30AM 52.7050 -11.0350 98° East 490 564 39,000  Level FlightAware
03:31AM 52.6880 -10.8530 99° East 489 563 39,000  Level FlightAware
03:32AM 52.6740 -10.7030 99° East 488 562 39,000  Level FlightAware
03:33AM 52.6600 -10.5480 98° East 486 559 39,000  Level FlightAware
03:33AM 52.6450 -10.3930 99° East 484 557 39,000  Level FlightAware
03:34AM 52.6300 -10.2450 99° East 486 559 39,000  Level FlightAware
03:35AM 52.6140 -10.0830 99° East 487 560 39,000  Level FlightAware
03:35AM 52.5990 -9.9350 99° East 487 560 39,000  Level FlightAware
03:36AM 52.5840 -9.7860 99° East 487 560 39,000  Level FlightAware
03:37AM 52.5670 -9.6220 100° East 488 562 39,000  Level FlightAware
03:38AM 52.5520 -9.4760 100° East 489 563 39,000  Level FlightAware
03:38AM 52.5340 -9.3140 100° East 489 563 39,000  Level FlightAware
03:39AM 52.5180 -9.1640 100° East 491 565 39,000  Level FlightAware
03:40AM 52.5030 -9.0210 100° East 492 566 39,000 -1,620 Level FlightAware
03:40AM 52.4940 -8.9427 100° East 476 548 37,500 -2,580 Descending FlightAware UK
03:40AM 52.4871 -8.8777 100° East 474 545 37,500 3,180 Level FlightAware UK
03:40AM 52.4840 -8.8530 100° East 490 564 39,000  Climbing FlightAware
03:41AM 52.4747 -8.7675 100° East 476 548 37,500 -2,400 Descending FlightAware UK
03:41AM 52.4673 -8.7018 100° East 474 545 37,500 4,500 Level FlightAware UK
03:41AM 52.4680 -8.7090 100° East 489 563 39,000  Climbing FlightAware
03:41AM 52.4599 -8.6359 100° East 474 545 37,500 -2,700 Descending FlightAware UK
03:42AM 52.4526 -8.5702 100° East 472 543 37,500 3,060 Level FlightAware UK
03:42AM 52.4490 -8.5420 100° East 489 563 39,000  Climbing FlightAware
03:42AM 52.4400 -8.4609 100° East 474 545 37,500 -2,460 Descending FlightAware UK
03:42AM 52.4324 -8.3954 101° East 478 550 37,500 4,260 Level FlightAware UK
03:42AM 52.4320 -8.3960 101° East 489 563 39,000  Climbing FlightAware
03:43AM 52.4249 -8.3300 101° East 476 548 37,500 -2,760 Descending FlightAware UK
03:43AM 52.4170 -8.2640 101° East 474 545 37,500 3,000 Level FlightAware UK
03:43AM 52.4140 -8.2340 101° East 487 560 39,000  Climbing FlightAware
03:44AM 52.4043 -8.1556 101° East 476 548 37,500 -2,520 Descending FlightAware UK
03:44AM 52.3966 -8.0906 101° East 476 548 37,500 4,080 Level FlightAware UK
03:44AM 52.3980 -8.1020 101° East 486 559 39,000  Climbing FlightAware
03:44AM 52.3866 -8.0039 101° East 476 548 37,500 -2,400 Descending FlightAware UK
03:45AM 52.3788 -7.9389 101° East 474 545 37,500 4,500 Level FlightAware UK
03:45AM 52.3800 -7.9480 101° East 485 558 39,000  Climbing FlightAware
03:45AM 52.3710 -7.8742 101° East 472 543 37,500 -2,700 Descending FlightAware UK
03:45AM 52.3633 -7.8094 101° East 470 541 37,500 3,060 Level FlightAware UK
03:45AM 52.3600 -7.7780 101° East 486 559 39,000  Climbing FlightAware
03:46AM 52.3502 -7.7014 101° East 472 543 37,500  Descending FlightAware UK
03:46AM 52.3450 -7.6560 101° East 488 562 39,000  Climbing FlightAware
03:46AM 52.3423 -7.6365 101° East 472 543 37,500 -4,500 Descending FlightAware UK
03:46AM 52.3343 -7.5716 101° East 474 545 37,500  Level FlightAware UK
03:47AM 52.3265 -7.5065 101° East 476 548 37,500 3,000 Level FlightAware UK
03:47AM 52.3220 -7.4710 101° East 489 563 39,000 -840 Climbing FlightAware
03:47AM 52.3131 -7.3980 101° East 474 545 37,100 -3,720 Descending FlightAware UK
03:47AM 52.3049 -7.3328 102° East 474 545 36,800 3,240 Descending FlightAware UK
03:47AM 52.3040 -7.3290 102° East 489 563 38,300 -1,020 Climbing FlightAware
03:48AM 52.2940 -7.2460 102° East 472 543 36,400 -3,480 Descending FlightAware UK
03:48AM 52.2858 -7.1812 102° East 470 541 36,100 2,880 Descending FlightAware UK
03:48AM 52.2850 -7.1750 102° East 488 562 37,600 -1,020 Climbing FlightAware
03:48AM 52.2748 -7.0941 102° East 472 543 35,700 -3,780 Descending FlightAware UK
03:49AM 52.2666 -7.0292 102° East 474 545 35,400 3,120 Descending FlightAware UK
03:49AM 52.2660 -7.0210 102° East 489 563 36,900 -1,020 Climbing FlightAware
03:49AM 52.2557 -6.9425 102° East 470 541 35,000 -3,600 Descending FlightAware UK
03:49AM 52.2473 -6.8777 102° East 470 541 34,700 3,660 Descending FlightAware UK
03:49AM 52.2480 -6.8810 102° East 488 562 36,300 -720 Climbing FlightAware
03:50AM 52.2389 -6.8129 102° East 466 536 34,500 -4,020 Descending FlightAware UK
03:50AM 52.2305 -6.7482 102° East 470 541 34,100 1,980 Descending FlightAware UK
03:50AM 52.2260 -6.7130 102° East 486 559 35,500 -840 Climbing FlightAware
03:51AM 52.2163 -6.6408 102° East 466 536 33,700 -900 Descending FlightAware UK
03:51AM 52.2090 -6.5860 102° East 486 559 35,000 -1,020 Climbing FlightAware
03:51AM 52.2079 -6.5767 102° East 468 539 33,400 -6,000 Descending FlightAware UK
03:51AM 52.1993 -6.5124 102° East 468 539 33,100 -1,020 Descending FlightAware UK
03:51AM 52.1910 -6.4480 102° East 468 539 32,800 2,760 Descending FlightAware UK
03:52AM 52.1880 -6.4270 102° East 490 564 34,300 -1,020 Climbing FlightAware
03:52AM 52.1796 -6.3619 102° East 468 539 32,400 -3,900 Descending FlightAware UK
03:52AM 52.1709 -6.2967 102° East 470 541 32,100 3,000 Descending FlightAware UK
03:52AM 52.1690 -6.2830 102° East 500 575 33,600 -1,020 Climbing FlightAware
03:53AM 52.1586 -6.2073 102° East 470 541 31,700 -3,540 Descending FlightAware UK
03:53AM 52.1498 -6.1408 102° East 468 539 31,500 2,880 Descending FlightAware UK
03:53AM 52.1480 -6.1270 102° East 502 578 33,000  Climbing FlightAware
03:53AM 52.1377 -6.0524 102° East 468 539 31,500 -2,760 Descending FlightAware UK
03:54AM 52.1287 -5.9864 102° East 466 536 31,500 3,000 Level FlightAware UK
03:54AM 52.1240 -5.9550 102° East 501 577 33,000  Climbing FlightAware
03:54AM 52.1124 -5.8763 102° East 466 536 31,500 -2,520 Descending FlightAware UK
03:54AM 52.0995 -5.8116 108° East 468 539 31,500 4,080 Level FlightAware UK
03:54AM 52.1000 -5.8130 108° East 503 579 33,000  Climbing FlightAware
03:55AM 52.0838 -5.7248 108° East 466 536 31,500 -2,400 Descending FlightAware UK
03:55AM 52.0722 -5.6597 106° East 466 536 31,500 4,500 Level FlightAware UK
03:55AM 52.0720 -5.6600 106° East 503 579 33,000  Climbing FlightAware
03:55AM 52.0604 -5.5946 106° East 468 539 31,500 -2,700 Descending FlightAware UK
03:56AM 52.0483 -5.5293 107° East 468 539 31,500 3,720 Level FlightAware UK
03:56AM 52.0450 -5.5140 107° East 505 581 33,000  Climbing FlightAware
03:56AM 52.0320 -5.4422 107° East 468 539 31,500 -2,520 Descending FlightAware UK
03:56AM 52.0201 -5.3769 107° East 470 541 31,500 3,300 Level FlightAware UK
03:56AM 52.0160 -5.3550 107° East 505 581 33,000  Climbing FlightAware
03:57AM 52.0042 -5.2900 107° East 468 539 31,500 -2,760 Descending FlightAware UK
03:57AM 51.9920 -5.2250 107° East 468 539 31,500 3,000 Level FlightAware UK
03:57AM 51.9850 -5.1910 107° East 503 579 33,000  Climbing FlightAware
03:58AM 51.9715 -5.1168 107° East 468 539 31,500  Descending FlightAware UK
03:58AM 51.9630 -5.0710 107° East 503 579 33,000  Climbing FlightAware
03:58AM 51.9593 -5.0520 107° East 468 539 31,500 -4,740 Descending FlightAware UK
03:58AM 51.9471 -4.9873 107° East 468 539 31,500  Level FlightAware UK
03:58AM 51.9351 -4.9224 107° East 468 539 31,500 2,880 Level FlightAware UK
03:59AM 51.9290 -4.8890 107° East 502 578 33,000  Climbing FlightAware
03:59AM 51.9105 -4.7932 107° East 468 539 31,500  Descending FlightAware UK
03:59AM 51.9010 -4.7470 107° East 502 578 33,000  Climbing FlightAware
04:00AM 51.8855 -4.6636 107° East 466 536 31,500 -2,460 Descending FlightAware UK
04:00AM 51.8731 -4.5993 107° East 468 539 31,500 4,260 Level FlightAware UK
04:00AM 51.8740 -4.6030 107° East 502 578 33,000  Climbing FlightAware
04:00AM 51.8606 -4.5349 107° East 468 539 31,500 -2,760 Descending FlightAware UK
04:01AM 51.8480 -4.4706 107° East 468 539 31,500 3,000 Level FlightAware UK
04:01AM 51.8420 -4.4390 107° East 501 577 33,000  Climbing FlightAware
04:01AM 51.8272 -4.3636 107° East 468 539 31,500 -2,520 Descending FlightAware UK
04:01AM 51.8148 -4.2993 107° East 468 539 31,500 4,080 Level FlightAware UK
04:01AM 51.8140 -4.2950 107° East 502 578 33,000  Climbing FlightAware
04:02AM 51.7979 -4.2138 107° East 468 539 31,500 -2,400 Descending FlightAware UK
04:02AM 51.7853 -4.1497 108° East 470 541 31,500 3,600 Level FlightAware UK
04:02AM 51.7840 -4.1420 108° East 501 577 33,000  Climbing FlightAware
04:03AM 51.7640 -4.0424 108° East 468 539 31,500  Descending FlightAware UK
04:03AM 51.7560 -4.0010 108° East 499 574 33,000 1,560 Climbing FlightAware
04:03AM 51.7270 -3.8570 108° East 499 574 33,000 -1,620 Level FlightAware
04:04AM 51.7131 -3.7876 108° East 468 539 31,500 -2,880 Descending FlightAware UK
04:04AM 51.6992 -3.7017 105° East 466 536 31,100 2,460 Descending FlightAware UK
04:04AM 51.6980 -3.6960 105° East 499 574 32,700 -780 Climbing FlightAware
04:05AM 51.6870 -3.6150 105° East 468 539 30,800 -1,080 Descending FlightAware UK
04:05AM 51.6770 -3.5490 105° East 502 578 32,000 -1,200 Climbing FlightAware
04:05AM 51.6678 -3.4835 105° East 470 541 30,100 -1,500 Descending FlightAware UK
04:05AM 51.6608 -3.4360 105° East 499 574 31,300 -1,620 Climbing FlightAware ADS-B
04:06AM 51.6519 -3.3748 105° East 468 539 29,300 -1,680 Descending FlightAware UK
04:06AM 51.6397 -3.2919 105° East 500 575 30,200 -1,800 Climbing FlightAware ADS-B
04:06AM 51.6265 -3.2015 105° East 462 532 27,900 -1,620 Descending FlightAware UK
04:07AM 51.6120 -3.1030 105° East 480 552 28,700 -1,680 Climbing FlightAware
04:07AM 51.6018 -3.0353 105° East 452 520 26,600 -1,860 Descending FlightAware UK
04:07AM 51.5985 -3.0131 105° East 474 545 28,000 -1,620 Climbing FlightAware ADS-B
04:08AM 51.5867 -2.9341 105° East 448 516 25,800 -1,800 Descending FlightAware UK
04:08AM 51.5812 -2.8983 105° East 459 528 27,000 -1,800 Climbing FlightAware ADS-B
04:08AM 51.5718 -2.8346 105° East 442 509 24,900 -1,800 Descending FlightAware UK
04:08AM 51.5662 -2.7992 105° East 446 513 26,100 -1,800 Climbing FlightAware ADS-B
04:09AM 51.5570 -2.7382 105° East 438 504 24,000 -1,800 Descending FlightAware UK
04:09AM 51.5517 -2.7037 105° East 439 505 25,200 -2,040 Climbing FlightAware ADS-B
04:09AM 51.5425 -2.6436 105° East 428 493 23,000 -2,160 Descending FlightAware UK
04:09AM 51.5369 -2.6070 105° East 438 504 24,100 -2,040 Climbing FlightAware ADS-B
04:10AM 51.5281 -2.5493 105° East 424 488 22,000 -1,980 Descending FlightAware UK
04:10AM 51.5135 -2.4549 105° East 429 494 22,500 -2,040 Climbing FlightAware ADS-B
04:11AM 51.5052 -2.4012 105° East 412 474 20,400 -1,980 Descending FlightAware UK
04:11AM 51.4961 -2.3433 105° East 422 486 21,300 -120 Climbing FlightAware ADS-B
04:11AM 51.4817 -2.2506 104° East 415 478 20,300 -3,780 Descending FlightAware ADS-B
04:12AM 51.4713 -2.1846 104° East 404 465 18,000 -1,980 Descending FlightAware UK
04:12AM 51.4673 -2.1592 104° East 409 471 19,300 240 Climbing FlightAware ADS-B
04:12AM 51.4574 -2.0633 99° East 404 465 18,200 -3,900 Descending FlightAware ADS-B
04:13AM 51.4527 -2.0073 99° East 394 453 16,000 -2,040 Descending FlightAware UK
04:13AM 51.4497 -1.9744 99° East 399 459 17,200 -2,040 Climbing FlightAware ADS-B
04:13AM 51.4449 -1.9198 99° East 394 453 15,000 -2,040 Descending FlightAware UK
04:13AM 51.4419 -1.8870 99° East 393 452 16,200 420 Climbing FlightAware ADS-B
04:14AM 51.4343 -1.8012 98° East 386 444 15,300 -3,720 Descending FlightAware ADS-B
04:14AM 51.4296 -1.7489 98° East 378 435 13,200 -1,500 Descending FlightAware UK
04:14AM 51.4265 -1.7145 98° East 377 434 14,500 -1,440 Climbing FlightAware ADS-B
04:15AM 51.4222 -1.6667 98° East 368 423 12,500 -900 Descending FlightAware UK
04:15AM 51.4179 -1.6202 98° East 373 429 14,000  Climbing FlightAware ADS-B
04:15AM 51.4132 -1.5680 98° East 362 417 12,500  Descending FlightAware UK
04:16AM 51.4104 -1.5382 98° East 357 411 14,000  Climbing FlightAware ADS-B
04:16AM 51.4061 -1.4909 98° East 334 384 12,500 -240 Descending FlightAware UK
04:16AM 51.4034 -1.4629 98° East 332 382 13,900 -840 Climbing FlightAware ADS-B
04:16AM 51.3981 -1.4042 98° East 318 366 12,000 -1,020 Descending FlightAware UK
04:17AM 51.3966 -1.3888 98° East 323 372 13,400 1,740 Climbing FlightAware ADS-B
04:17AM 51.3907 -1.3256 98° East 314 361 13,000 -960 Descending FlightAware ADS-B
04:18AM 51.3842 -1.2570 99° East 307 353 12,500 -1,020 Descending FlightAware ADS-B
04:18AM 51.3778 -1.1888 99° East 304 350 12,000 -900 Descending FlightAware ADS-B
04:19AM 51.3712 -1.1193 99° East 298 343 11,600 -720 Descending FlightAware ADS-B
04:19AM 51.3655 -1.0599 99° East 296 341 11,300 -540 Descending FlightAware ADS-B
04:20AM 51.3593 -0.9947 99° East 296 341 11,100 -540 Descending FlightAware ADS-B
04:20AM 51.3530 -0.9299 99° East 295 339 10,800 -2,400 Descending FlightAware ADS-B
04:20AM 51.3486 -0.8856 99° East 292 336 9,100 -420 Descending FlightAware UK
04:21AM 51.3467 -0.8652 99° East 292 336 10,600 -480 Climbing FlightAware ADS-B
04:21AM 51.3437 -0.8339 99° East 290 334 8,900 -420 Descending FlightAware UK
04:21AM 51.3404 -0.8008 99° East 291 335 10,400 -540 Climbing FlightAware ADS-B
04:21AM 51.3362 -0.7575 99° East 290 334 8,600 -600 Descending FlightAware UK
04:22AM 51.3341 -0.7371 99° East 290 334 10,100 3,360 Climbing FlightAware ADS-B
04:22AM 51.3309 -0.7045 99° East 291 335 10,000 -600 Descending FlightAware ADS-B
04:22AM 51.3274 -0.6698 99° East 292 336 9,800 -600 Descending FlightAware ADS-B
04:22AM 51.3242 -0.6375 99° East 291 335 9,700 -420 Descending FlightAware ADS-B
04:23AM 51.3210 -0.6051 99° East 290 334 9,600 -420 Descending FlightAware ADS-B
04:23AM 51.3177 -0.5721 99° East 291 335 9,500 -600 Descending FlightAware ADS-B
04:23AM 51.3144 -0.5399 99° East 291 335 9,300 -600 Descending FlightAware ADS-B
04:23AM 51.3113 -0.5090 99° East 285 328 9,200 -480 Descending FlightAware ADS-B
04:24AM 51.3090 -0.4853 99° East 279 321 9,100 -420 Descending FlightAware ADS-B
04:24AM 51.3085 -0.4758 95° East 276 318 9,100 -720 Level FlightAware ADS-B
04:24AM 51.3086 -0.4681 89° East 274 315 9,000 -900 Descending FlightAware ADS-B
04:24AM 51.3091 -0.4622 82° East 272 313 9,000  Level FlightAware ADS-B
04:24AM 51.3103 -0.4550 75° East 270 311 9,000 -900 Level FlightAware ADS-B
04:24AM 51.3119 -0.4485 69° East 268 308 8,900 -720 Descending FlightAware ADS-B
04:24AM 51.3149 -0.4397 61° Northeast 265 305 8,900 -780 Level FlightAware ADS-B
04:24AM 51.3174 -0.4346 52° Northeast 262 302 8,800 -900 Descending FlightAware ADS-B
04:24AM 51.3202 -0.4299 47° Northeast 260 299 8,800 -900 Level FlightAware ADS-B
04:24AM 51.3230 -0.4260 41° Northeast 258 297 8,700 -900 Descending FlightAware ADS-B
04:24AM 51.3271 -0.4218 33° Northeast 256 295 8,700  Level FlightAware ADS-B
04:24AM 51.3302 -0.4193 27° Northeast 255 293 8,700 -1,020 Level FlightAware ADS-B
04:24AM 51.3336 -0.4173 20° North 254 292 8,600 -900 Descending FlightAware ADS-B
04:24AM 51.3388 -0.4155 12° North 250 288 8,600 -600 Level FlightAware ADS-B
04:24AM 51.3457 -0.4147 North 248 285 8,500 -600 Descending FlightAware ADS-B
04:24AM 51.3497 -0.4147 360° North 247 284 8,500 -660 Level FlightAware ADS-B
04:25AM 51.3677 -0.4153 359° North 244 281 8,300 -780 Descending FlightAware ADS-B
04:25AM 51.3850 -0.4161 358° North 244 281 8,100 -840 Descending FlightAware ADS-B
04:25AM 51.3920 -0.4163 359° North 245 282 8,000 -600 Descending FlightAware ADS-B
04:25AM 51.3967 -0.4160 North 244 281 8,000 -780 Level FlightAware ADS-B
04:25AM 51.4015 -0.4147 10° North 245 282 7,900 -780 Descending FlightAware ADS-B
04:25AM 51.4058 -0.4124 18° North 246 283 7,900 -600 Level FlightAware ADS-B
04:25AM 51.4115 -0.4074 28° Northeast 245 282 7,800 -1,020 Descending FlightAware ADS-B
04:26AM 51.4168 -0.4001 41° Northeast 246 283 7,700 -600 Descending FlightAware ADS-B
04:26AM 51.4195 -0.3946 52° Northeast 247 284 7,700 -720 Level FlightAware ADS-B
04:26AM 51.4223 -0.3869 60° Northeast 248 285 7,600 -720 Descending FlightAware ADS-B
04:26AM 51.4239 -0.3797 70° East 249 287 7,600  Level FlightAware ADS-B
04:26AM 51.4250 -0.3711 78° East 249 287 7,600  Level FlightAware ADS-B
04:26AM 51.4252 -0.3655 87° East 249 287 7,600 -900 Level FlightAware ADS-B
04:26AM 51.4247 -0.3570 95° East 249 287 7,500 -540 Descending FlightAware ADS-B
04:26AM 51.4218 -0.3424 108° East 250 288 7,500  Level FlightAware ADS-B
04:26AM 51.4198 -0.3363 118° Southeast 250 288 7,500 -300 Level FlightAware ADS-B
04:26AM 51.4102 -0.3120 122° Southeast 252 290 7,400 -420 Descending FlightAware ADS-B
04:27AM 51.3995 -0.2860 123° Southeast 252 290 7,300 -420 Descending FlightAware ADS-B
04:27AM 51.3897 -0.2619 123° Southeast 250 288 7,200 -420 Descending FlightAware ADS-B
04:27AM 51.3801 -0.2385 123° Southeast 249 287 7,100 -480 Descending FlightAware ADS-B
04:27AM 51.3730 -0.2204 122° Southeast 248 285 7,000 -780 Descending FlightAware ADS-B
04:27AM 51.3710 -0.2129 113° Southeast 248 285 6,900 -1,380 Descending FlightAware ADS-B
04:28AM 51.3697 -0.2052 105° East 247 284 6,800 -720 Descending FlightAware ADS-B
04:28AM 51.3692 -0.1983 97° East 246 283 6,800  Level FlightAware ADS-B
04:28AM 51.3693 -0.1907 89° East 245 282 6,800 -720 Level FlightAware ADS-B
04:28AM 51.3698 -0.1813 85° East 243 280 6,700 -1,020 Descending FlightAware ADS-B
04:28AM 51.3710 -0.1696 81° East 239 275 6,600 -600 Descending FlightAware ADS-B
04:28AM 51.3741 -0.1430 79° East 234 269 6,500 -600 Descending FlightAware ADS-B
04:28AM 51.3777 -0.1141 79° East 233 268 6,300 -600 Descending FlightAware ADS-B
04:29AM 51.3805 -0.0913 79° East 225 259 6,200 -420 Descending FlightAware ADS-B
04:29AM 51.3835 -0.0668 79° East 216 249 6,100 -480 Descending FlightAware ADS-B
04:29AM 51.3861 -0.0468 78° East 209 241 6,000 -600 Descending FlightAware ADS-B
04:29AM 51.3877 -0.0374 75° East 206 237 5,900 -540 Descending FlightAware ADS-B
04:29AM 51.3900 -0.0300 64° Northeast 204 235 5,900 -540 Level FlightAware ADS-B
04:29AM 51.3942 -0.0226 48° Northeast 200 230 5,800 -540 Descending FlightAware ADS-B
04:29AM 51.3982 -0.0183 33° Northeast 199 229 5,800 -780 Level FlightAware ADS-B
04:30AM 51.4008 -0.0167 21° North 198 228 5,700 -1,020 Descending FlightAware ADS-B
04:30AM 51.4035 -0.0155 16° North 198 228 5,700  Level FlightAware ADS-B
04:30AM 51.4091 -0.0145 North 198 228 5,700 -600 Level FlightAware ADS-B
04:30AM 51.4129 -0.0144 North 198 228 5,600 -900 Descending FlightAware ADS-B
04:30AM 51.4269 -0.0162 356° North 198 228 5,400 -840 Descending FlightAware ADS-B
04:30AM 51.4406 -0.0190 353° North 199 229 5,200 -900 Descending FlightAware ADS-B
04:30AM 51.4461 -0.0203 352° North 198 228 5,100 -600 Descending FlightAware ADS-B
04:30AM 51.4505 -0.0220 347° North 198 228 5,100 -720 Level FlightAware ADS-B
04:31AM 51.4540 -0.0243 337° Northwest 200 230 5,000 -900 Descending FlightAware ADS-B
04:31AM 51.4563 -0.0268 326° Northwest 201 231 5,000 -900 Level FlightAware ADS-B
04:31AM 51.4592 -0.0309 319° Northwest 202 232 4,900 -600 Descending FlightAware ADS-B
04:31AM 51.4624 -0.0372 309° West 202 232 4,900 -480 Level FlightAware ADS-B
04:31AM 51.4660 -0.0459 303° West 201 231 4,800 -900 Descending FlightAware ADS-B
04:31AM 51.4694 -0.0555 300° West 200 230 4,700 -1,020 Descending FlightAware ADS-B
04:31AM 51.4740 -0.0699 297° West 198 228 4,500 -1,140 Descending FlightAware ADS-B
04:31AM 51.4756 -0.0768 290° West 197 227 4,400 -720 Descending FlightAware ADS-B
04:31AM 51.4775 -0.0928 281° West 193 222 4,300 -660 Descending FlightAware ADS-B
04:32AM 51.4780 -0.1037 274° West 187 215 4,200 -1,080 Descending FlightAware ADS-B
04:32AM 51.4782 -0.1257 271° West 185 213 3,900 -960 Descending FlightAware ADS-B
04:32AM 51.4782 -0.1473 270° West 183 211 3,700 -960 Descending FlightAware ADS-B
04:32AM 51.4782 -0.1691 270° West 182 209 3,400 -1,320 Descending FlightAware ADS-B
04:33AM 51.4780 -0.2060 270° West 181 208 2,700 -3,000 Descending FlightAware
04:33AM 51.4782 -0.2406 270° West 172 198 800 -720 Descending FlightAware UK
04:33AM 51.4780 -0.2270 270° West 180 207 2,400 7,500 Climbing FlightAware
04:33AM 51.4780 -0.2390 270° West 175 201 2,300 -1,080 Descending FlightAware
04:34AM 51.4780 -0.2950 270° West 167 192 1,600 -1,140 Descending FlightAware
04:35AM 51.4780 -0.3310 270° West 152 175 1,100 -840 Descending FlightAware
04:35AM 51.4780 -0.3680 270° West 141 162 700 -780 Descending FlightAware
04:36AM 51.4780 -0.3980 270° West 141 162 300 -600 Descending FlightAware
04:36AM 51.4780 -0.4220 270° West 140 161 100 -360 Descending FlightAware